INFORMACIÓN METAR y TAF
METAR FOR GCRR
ADDS - METARS form results

(1035 UTC 15 November 2019)
Data provider http://aviationweather.gov/metar/data/
 
METAR text: GCRR 151030Z 36020KT 9999 SCT035 21/13 Q1018
Conditions at: GCRR (ARRECIFE/LANZARO, ES) observed 1030 UTC 15 November 2019
Temperature: 21.0°C (70°F)
Dewpoint: 13.0°C (55°F) [RH = 60%]
Pressure (altimeter): 30.06 inches Hg (1018.0 mb)
Winds: from the N (360 degrees) at 23 MPH (20 knots; 10.3 m/s)
Visibility: 6 or more miles (10+ km)
Ceiling: at least 12,000 feet AGL
Clouds: scattered clouds at 3500 feet AGL
Weather: no significant weather observed at this time

METAR text: GCRR 151000Z 01017KT 9999 FEW030 20/12 Q1017
Conditions at: GCRR (ARRECIFE/LANZARO, ES) observed 1000 UTC 15 November 2019
Temperature: 20.0°C (68°F)
Dewpoint: 12.0°C (54°F) [RH = 60%]
Pressure (altimeter): 30.03 inches Hg (1017.0 mb)
Winds: from the N (10 degrees) at 20 MPH (17 knots; 8.7 m/s)
Visibility: 6 or more miles (10+ km)
Ceiling: at least 12,000 feet AGL
Clouds: few clouds at 3000 feet AGL
Weather: no significant weather observed at this time

Forecast for: GCRR (ARRECIFE/LANZARO, ES)
Text: TAF GCRR 150800Z 1509/1609 03018KT 9999 SCT030 TX24/1514Z TN16/1606Z
Forecast period: 0900 UTC 15 November 2019 to 0900 UTC 16 November 2019
Forecast type: FROM: standard forecast or significant change
Winds: from the NNE (30 degrees) at 21 MPH (18 knots; 9.3 m/s)
Visibility: 6 or more miles 10+ km)
Ceiling: at least 12,000 feet AGL
Clouds: scattered clouds at 3000 feet AGL
Weather: no significant weather forecast for this period

 MAPA DE AEROPUERTO

 INFORMACIÓN DE PISTA
Pista 03 Longitud 7874 ft Ancho 148 ft
Elevación 18 ft Umbral desplazado 0 ft Rumbo de pista 27
Pista 21 Longitud 7874 ft Ancho 148 ft
Elevación 47 ft Umbral desplazado 0 ft Rumbo de pista 207

 FRECUANCIAS DEL AEROPUERTO
Tipo APP Nombre CANARIAS A Frecuencia 129.3 MHZ
Tipo ATIS Nombre ATIS Frecuencia 118.625 MHZ
Tipo GND Nombre GND Frecuencia 121.8 MHZ
Tipo TWR Nombre TWR Frecuencia 120.7 MHZ

 RADIO AYUDAS DEL AEROPUERTO
Tipo VOR-DME Nombre Lanzarote Frecuencia 113700 KHZ
Tipo NDB Nombre Lanzarote Frecuencia 310 KHZ
Tipo VOR-DME Nombre Lanzarote Frecuencia 115200 KHZ
Tipo TACAN Nombre Lanzarote Frecuencia 114700 KHZ



Powered by Virtual Airlines Manager [v2.6.2]